Time;durP1;ratioP1;P1;durP2;ratioP2;P2;SDS_P1;SDS_P2;PMS_P1;PMS_P2;Temp;Humidity;BMP_temperature;BMP_pressure;BME280_temperature;BME280_humidity;BME280_pressure;Samples;Min_cycle;Max_cycle;Signal;HPM_P1;HPM_P2
2021/07/26 00:02:27;;;;;;;11.87;10.67;;;20.40;99.90;;;;;;5027741;28;20232;-67
2021/07/26 00:04:58;;;;;;;11.87;10.77;;;20.30;99.90;;;;;;5028550;28;20296;-67
2021/07/26 00:07:27;;;;;;;12.17;10.97;;;20.30;99.90;;;;;;5028277;28;20263;-66
2021/07/26 00:09:56;;;;;;;12.50;11.20;;;20.30;99.90;;;;;;5028672;28;20250;-67
2021/07/26 00:12:24;;;;;;;11.90;10.80;;;20.20;99.90;;;;;;5067605;28;20238;-67
2021/07/26 00:14:54;;;;;;;11.27;10.17;;;20.10;99.90;;;;;;5068220;28;20238;-67
2021/07/26 00:17:22;;;;;;;10.30;9.47;;;20.10;99.90;;;;;;5067720;28;20253;-67
2021/07/26 00:19:50;;;;;;;9.13;8.33;;;20.00;99.90;;;;;;5046724;28;20297;-67
2021/07/26 00:22:18;;;;;;;10.07;7.97;;;20.00;99.90;;;;;;5046716;28;20238;-67
2021/07/26 00:24:47;;;;;;;10.23;8.60;;;19.90;99.90;;;;;;5048093;28;20238;-67
2021/07/26 00:27:15;;;;;;;7.90;7.20;;;19.90;99.90;;;;;;5066345;28;20235;-66
2021/07/26 00:29:43;;;;;;;8.43;7.37;;;19.90;99.90;;;;;;5066349;28;20234;-67
2021/07/26 00:32:13;;;;;;;8.47;7.73;;;19.90;99.90;;;;;;5067691;28;20233;-67
2021/07/26 00:34:41;;;;;;;8.47;7.77;;;19.80;99.90;;;;;;5067672;28;20238;-66
2021/07/26 00:37:09;;;;;;;10.07;9.17;;;19.80;99.90;;;;;;5066046;28;20242;-67
2021/07/26 00:39:37;;;;;;;10.73;9.77;;;19.80;99.90;;;;;;5067150;28;20235;-67
2021/07/26 00:42:06;;;;;;;11.00;10.00;;;19.80;99.90;;;;;;5067323;28;20234;-66
2021/07/26 00:44:36;;;;;;;11.17;10.03;;;19.80;99.90;;;;;;5067646;28;20246;-67
2021/07/26 00:47:05;;;;;;;11.27;10.27;;;19.80;99.90;;;;;;5052120;28;20243;-67
2021/07/26 00:49:34;;;;;;;11.60;10.40;;;19.80;99.90;;;;;;5047562;28;20235;-68
2021/07/26 00:52:03;;;;;;;11.97;10.87;;;19.80;99.90;;;;;;5064111;28;20262;-66
2021/07/26 00:54:32;;;;;;;11.20;10.20;;;19.80;99.90;;;;;;5067913;28;20595;-67
2021/07/26 00:57:03;;;;;;;10.43;9.47;;;19.70;99.90;;;;;;5067493;28;20240;-67
2021/07/26 00:59:32;;;;;;;8.70;7.90;;;19.70;99.90;;;;;;5067452;28;20241;-67
2021/07/26 01:02:01;;;;;;;9.77;8.87;;;19.70;99.90;;;;;;5066647;28;20238;-66
2021/07/26 01:04:29;;;;;;;11.03;9.97;;;19.70;99.90;;;;;;5067148;28;20257;-67
2021/07/26 01:06:59;;;;;;;11.30;10.20;;;19.80;99.90;;;;;;5067001;28;20260;-66
2021/07/26 01:09:27;;;;;;;11.50;10.40;;;19.70;99.90;;;;;;5066984;28;20236;-67
2021/07/26 01:11:55;;;;;;;10.93;9.93;;;19.70;99.90;;;;;;5059838;28;20264;-67
2021/07/26 01:14:25;;;;;;;11.37;10.37;;;19.70;99.90;;;;;;5046949;28;20242;-67
2021/07/26 01:16:54;;;;;;;13.30;12.10;;;19.60;99.90;;;;;;5046702;28;20240;-67
2021/07/26 01:19:22;;;;;;;12.77;11.53;;;19.60;99.90;;;;;;5047385;28;20266;-67
2021/07/26 01:21:51;;;;;;;10.20;9.20;;;19.50;99.90;;;;;;5046304;28;20304;-66
2021/07/26 01:24:19;;;;;;;9.40;8.50;;;19.40;99.90;;;;;;5046977;28;20245;-67
2021/07/26 01:26:48;;;;;;;8.73;7.93;;;19.40;99.90;;;;;;5046410;28;20289;-67
2021/07/26 01:29:17;;;;;;;9.40;7.53;;;19.40;99.90;;;;;;5046976;28;20324;-67
2021/07/26 01:31:45;;;;;;;7.67;7.00;;;19.30;99.90;;;;;;5060795;28;20240;-67
2021/07/26 01:34:13;;;;;;;7.60;6.83;;;19.30;99.90;;;;;;5067013;28;20714;-67
2021/07/26 01:36:41;;;;;;;6.60;5.90;;;19.30;99.90;;;;;;5066705;28;20234;-67
2021/07/26 01:39:10;;;;;;;7.60;6.80;;;19.30;99.90;;;;;;5067147;28;20602;-66
2021/07/26 01:41:39;;;;;;;9.07;7.97;;;19.20;99.90;;;;;;5053390;28;20250;-66
2021/07/26 01:44:10;;;;;;;8.77;7.97;;;19.20;99.90;;;;;;5046831;28;20595;-67
2021/07/26 01:47:06;;;;;;;7.70;7.07;;;19.20;99.90;;;;;;5046364;28;20243;-67
2021/07/26 01:49:55;;;;;;;7.83;7.13;;;19.10;99.90;;;;;;5043332;28;20234;-67
2021/07/26 01:52:25;;;;;;;6.80;6.10;;;19.10;99.90;;;;;;5048602;28;20238;-67
2021/07/26 01:54:55;;;;;;;7.20;6.50;;;19.00;99.90;;;;;;5051144;28;20258;-66
2021/07/26 01:57:24;;;;;;;7.40;6.70;;;19.00;99.90;;;;;;5050814;28;20354;-67
2021/07/26 01:59:53;;;;;;;7.90;7.23;;;19.10;99.90;;;;;;5050902;28;20231;-66
2021/07/26 02:02:23;;;;;;;8.93;8.13;;;19.00;99.90;;;;;;5050041;28;20701;-67
2021/07/26 02:04:52;;;;;;;8.80;7.90;;;18.90;99.90;;;;;;5050893;28;20353;-66
2021/07/26 02:07:20;;;;;;;8.83;8.00;;;18.70;99.90;;;;;;5069966;28;20243;-67
2021/07/26 02:09:54;;;;;;;8.93;8.03;;;18.70;99.90;;;;;;5070933;28;20234;-67
2021/07/26 02:12:23;;;;;;;9.70;8.50;;;18.80;99.90;;;;;;5070253;28;20311;-67
2021/07/26 02:14:51;;;;;;;8.87;8.17;;;18.80;99.90;;;;;;5070374;28;20579;-66
2021/07/26 02:17:19;;;;;;;8.83;8.13;;;18.70;99.90;;;;;;5070388;28;20230;-67
2021/07/26 02:19:47;;;;;;;8.63;7.93;;;18.70;99.90;;;;;;5062991;28;20233;-66
2021/07/26 02:22:15;;;;;;;9.83;8.93;;;18.70;99.90;;;;;;5068702;28;20640;-67
2021/07/26 02:24:43;;;;;;;8.93;8.13;;;18.60;99.90;;;;;;5070543;28;20272;-66
2021/07/26 02:27:14;;;;;;;9.20;8.40;;;18.70;99.90;;;;;;5070242;28;20749;-67
2021/07/26 02:29:42;;;;;;;8.70;7.90;;;18.70;99.90;;;;;;5070453;28;20288;-66
2021/07/26 02:32:10;;;;;;;9.40;8.57;;;18.70;99.90;;;;;;5069798;28;20886;-66
2021/07/26 02:34:38;;;;;;;9.77;8.97;;;18.70;99.90;;;;;;5070213;28;20310;-66
2021/07/26 02:37:06;;;;;;;10.53;9.53;;;18.70;99.90;;;;;;5052592;28;20241;-66
2021/07/26 02:39:34;;;;;;;11.77;10.67;;;18.70;99.90;;;;;;5050677;28;20304;-67
2021/07/26 02:42:04;;;;;;;12.27;11.23;;;18.80;99.90;;;;;;5066572;28;20323;-67
2021/07/26 02:44:33;;;;;;;12.90;11.37;;;18.70;99.90;;;;;;5070224;28;20234;-67
2021/07/26 02:47:01;;;;;;;11.20;10.10;;;18.50;99.90;;;;;;5051706;28;20241;-66
2021/07/26 02:49:29;;;;;;;10.53;9.43;;;18.50;99.90;;;;;;5049926;28;20308;-67
2021/07/26 02:51:57;;;;;;;9.77;8.90;;;18.50;99.90;;;;;;5049418;28;20237;-66
2021/07/26 02:54:25;;;;;;;9.97;9.07;;;18.50;99.90;;;;;;5049541;28;20326;-67
2021/07/26 02:56:54;;;;;;;10.00;9.03;;;18.50;99.90;;;;;;5049404;28;20245;-67
2021/07/26 02:59:22;;;;;;;9.60;8.73;;;18.50;99.90;;;;;;5049336;28;20293;-66
2021/07/26 03:01:52;;;;;;;9.03;8.23;;;18.50;99.90;;;;;;5049927;28;20248;-66
2021/07/26 03:04:21;;;;;;;9.47;8.57;;;18.50;99.90;;;;;;5048084;28;20273;-66
2021/07/26 03:06:49;;;;;;;9.57;8.67;;;18.50;99.90;;;;;;5064991;28;20236;-66
2021/07/26 03:09:17;;;;;;;9.87;8.23;;;18.40;99.90;;;;;;5070435;28;20237;-67
2021/07/26 03:11:45;;;;;;;9.13;8.33;;;18.40;99.90;;;;;;5054071;28;20237;-66
2021/07/26 03:14:13;;;;;;;9.13;8.23;;;18.30;99.90;;;;;;5048414;28;20295;-67
2021/07/26 03:16:42;;;;;;;10.17;9.27;;;18.30;99.90;;;;;;5047901;28;20233;-67
2021/07/26 03:19:12;;;;;;;10.93;9.83;;;18.30;99.90;;;;;;5048304;28;20226;-66
2021/07/26 03:21:40;;;;;;;11.37;10.37;;;18.30;99.90;;;;;;5045699;28;20232;-67
2021/07/26 03:24:08;;;;;;;11.43;10.43;;;18.30;99.90;;;;;;5048015;28;20258;-66
2021/07/26 03:26:36;;;;;;;13.27;11.93;;;18.30;99.90;;;;;;5048150;28;20230;-66
2021/07/26 03:29:07;;;;;;;14.13;12.83;;;18.40;99.90;;;;;;5046760;28;20708;-67
2021/07/26 03:31:40;;;;;;;13.23;12.07;;;18.40;99.90;;;;;;5060830;28;20652;-67
2021/07/26 03:34:08;;;;;;;14.30;12.90;;;18.40;99.90;;;;;;5067210;28;20286;-66
2021/07/26 03:36:37;;;;;;;14.77;13.47;;;18.40;99.90;;;;;;5050026;28;20244;-67
2021/07/26 03:39:06;;;;;;;14.60;13.30;;;18.50;99.90;;;;;;5048042;28;20246;-67
2021/07/26 03:41:34;;;;;;;15.40;13.90;;;18.50;99.90;;;;;;5060440;28;20233;-67
2021/07/26 03:44:02;;;;;;;15.60;14.03;;;18.50;99.90;;;;;;5057038;28;20233;-66
2021/07/26 03:46:30;;;;;;;14.37;12.87;;;18.40;99.90;;;;;;5047008;28;20572;-66
2021/07/26 03:48:58;;;;;;;13.93;12.30;;;18.40;99.90;;;;;;5047782;28;20238;-66
2021/07/26 03:51:26;;;;;;;13.60;12.30;;;18.30;99.90;;;;;;5059070;28;20241;-67
2021/07/26 03:53:55;;;;;;;13.03;11.83;;;18.40;99.90;;;;;;5067618;28;20680;-67
2021/07/26 03:56:23;;;;;;;13.23;12.03;;;18.40;99.90;;;;;;5056001;28;20285;-67
2021/07/26 03:58:51;;;;;;;13.33;12.07;;;18.40;99.90;;;;;;5047887;28;20263;-67
2021/07/26 04:01:21;;;;;;;15.33;13.87;;;18.40;99.90;;;;;;5057603;28;20603;-67
2021/07/26 04:03:49;;;;;;;15.33;13.90;;;18.40;99.90;;;;;;5067104;28;20605;-66
2021/07/26 04:06:21;;;;;;;13.53;12.13;;;18.30;99.90;;;;;;5066869;28;20248;-66
2021/07/26 04:08:51;;;;;;;13.77;12.57;;;18.20;99.90;;;;;;5067021;28;20236;-67
2021/07/26 04:11:23;;;;;;;14.33;13.03;;;18.30;99.90;;;;;;5067006;28;20302;-67
2021/07/26 04:13:54;;;;;;;14.80;13.50;;;18.30;99.90;;;;;;5058382;28;20242;-67
2021/07/26 04:16:23;;;;;;;14.47;13.07;;;18.40;99.90;;;;;;5046946;28;20241;-67
2021/07/26 04:18:51;;;;;;;14.90;13.50;;;18.40;99.90;;;;;;5047224;28;20275;-69
2021/07/26 04:21:20;;;;;;;16.33;14.77;;;18.50;99.90;;;;;;5046491;28;20238;-69
2021/07/26 04:23:48;;;;;;;16.33;14.73;;;18.60;99.90;;;;;;5046875;28;20225;-69
2021/07/26 04:26:16;;;;;;;19.63;17.63;;;18.60;99.90;;;;;;5056880;28;20283;-69
2021/07/26 04:28:45;;;;;;;16.13;14.63;;;18.60;99.90;;;;;;5066774;28;20677;-69
2021/07/26 04:31:13;;;;;;;17.33;15.63;;;18.70;99.90;;;;;;5081980;28;20234;-69
2021/07/26 04:33:41;;;;;;;18.47;16.20;;;18.70;99.90;;;;;;5066495;28;20244;-69
2021/07/26 04:36:10;;;;;;;17.50;15.70;;;18.80;99.90;;;;;;5056968;28;20246;-69
2021/07/26 04:38:38;;;;;;;17.53;15.73;;;18.90;99.90;;;;;;5046158;28;20235;-69
2021/07/26 04:41:06;;;;;;;17.27;15.50;;;18.90;99.90;;;;;;5046698;28;20237;-69
2021/07/26 04:43:35;;;;;;;20.30;16.70;;;19.00;99.90;;;;;;5045504;28;20611;-69
2021/07/26 04:46:09;;;;;;;17.73;15.83;;;19.00;99.90;;;;;;5045588;28;20641;-70
2021/07/26 04:48:37;;;;;;;16.67;14.57;;;19.10;99.90;;;;;;5045396;28;20667;-69
2021/07/26 04:51:06;;;;;;;18.30;16.40;;;19.10;99.90;;;;;;5045330;28;20249;-69
2021/07/26 04:53:34;;;;;;;18.90;16.57;;;19.10;99.90;;;;;;5045289;28;20299;-69
2021/07/26 04:56:02;;;;;;;18.37;16.57;;;19.20;99.90;;;;;;5044629;28;20234;-69
2021/07/26 04:58:30;;;;;;;20.20;18.07;;;19.20;99.90;;;;;;5044187;28;20242;-69
2021/07/26 05:00:59;;;;;;;18.57;16.60;;;19.10;99.90;;;;;;5045810;28;20241;-69
2021/07/26 05:03:28;;;;;;;18.10;16.37;;;19.20;99.90;;;;;;5045930;28;20733;-69
2021/07/26 05:05:56;;;;;;;19.30;17.30;;;19.20;99.90;;;;;;5046004;28;20729;-69
2021/07/26 05:08:24;;;;;;;18.33;16.53;;;19.20;99.90;;;;;;5045229;28;20727;-69
2021/07/26 05:10:52;;;;;;;21.57;18.47;;;19.20;99.90;;;;;;5045304;28;20640;-69
2021/07/26 05:13:20;;;;;;;19.17;17.17;;;19.30;99.90;;;;;;5045578;28;20233;-69
2021/07/26 05:15:48;;;;;;;18.47;16.50;;;19.40;99.90;;;;;;5044377;28;20234;-70
2021/07/26 05:18:17;;;;;;;18.50;16.70;;;19.50;99.90;;;;;;5045779;28;20258;-69
2021/07/26 05:20:46;;;;;;;17.07;15.27;;;19.60;99.90;;;;;;5051699;28;20391;-69
2021/07/26 05:23:16;;;;;;;17.60;15.80;;;19.70;99.90;;;;;;5065989;28;20236;-70
2021/07/26 05:25:46;;;;;;;18.43;16.47;;;19.70;99.90;;;;;;5059297;28;20246;-70
2021/07/26 05:28:14;;;;;;;17.33;15.53;;;19.70;99.90;;;;;;5045545;28;20231;-69
2021/07/26 05:30:42;;;;;;;17.53;15.80;;;19.80;99.90;;;;;;5051753;28;20710;-70
2021/07/26 05:33:10;;;;;;;17.53;15.67;;;19.70;99.90;;;;;;5066766;28;20226;-69
2021/07/26 05:35:40;;;;;;;17.03;15.27;;;19.80;99.90;;;;;;5061484;28;20894;-69
2021/07/26 05:38:09;;;;;;;16.13;14.60;;;19.80;99.90;;;;;;5047306;28;20238;-69
2021/07/26 05:40:37;;;;;;;15.33;13.87;;;19.80;99.90;;;;;;5046078;28;20239;-69
2021/07/26 05:43:06;;;;;;;16.20;14.63;;;19.80;99.90;;;;;;5047066;28;20234;-70
2021/07/26 05:45:36;;;;;;;15.77;14.20;;;19.80;99.90;;;;;;5046852;28;20682;-69
2021/07/26 05:48:05;;;;;;;15.23;13.83;;;19.90;99.90;;;;;;5047312;28;20237;-69
2021/07/26 05:50:33;;;;;;;15.83;13.87;;;19.90;99.90;;;;;;5046590;28;20301;-69
2021/07/26 05:53:05;;;;;;;15.33;13.90;;;20.00;99.90;;;;;;5046546;28;20257;-69
2021/07/26 05:55:34;;;;;;;14.83;13.43;;;20.10;99.90;;;;;;5046014;28;20675;-70
2021/07/26 05:58:04;;;;;;;16.07;12.87;;;20.20;99.90;;;;;;5045619;28;20239;-71
2021/07/26 06:00:42;;;;;;;14.97;13.37;;;20.30;99.90;;;;;;5044700;28;20231;-71
2021/07/26 06:03:10;;;;;;;14.37;12.90;;;20.30;99.90;;;;;;5036144;28;20577;-71
2021/07/26 06:05:39;;;;;;;14.30;12.90;;;20.40;99.90;;;;;;5034878;28;20804;-71
2021/07/26 06:08:07;;;;;;;17.80;13.93;;;20.40;99.90;;;;;;5035836;28;20321;-71
2021/07/26 06:10:37;;;;;;;15.93;14.00;;;20.50;99.90;;;;;;5032570;28;20231;-71
2021/07/26 06:13:06;;;;;;;14.20;12.70;;;20.50;99.90;;;;;;5033156;28;20254;-71
2021/07/26 06:15:34;;;;;;;14.60;13.20;;;20.40;99.90;;;;;;5034378;28;20477;-71
2021/07/26 06:18:02;;;;;;;15.87;14.03;;;20.40;99.90;;;;;;5052736;28;20234;-71
2021/07/26 06:20:31;;;;;;;14.83;13.43;;;20.40;99.90;;;;;;5039503;28;20259;-72
2021/07/26 06:22:59;;;;;;;14.00;12.60;;;20.50;99.90;;;;;;5030854;28;20741;-71
2021/07/26 06:25:28;;;;;;;13.93;12.53;;;20.70;99.90;;;;;;5028158;28;20724;-71
2021/07/26 06:27:57;;;;;;;15.40;13.73;;;21.10;99.90;;;;;;5032646;28;20232;-71
2021/07/26 06:30:25;;;;;;;14.30;12.90;;;21.30;99.90;;;;;;5032855;28;20652;-71
2021/07/26 06:32:54;;;;;;;15.43;13.93;;;21.50;99.90;;;;;;5031422;28;20580;-71
2021/07/26 06:35:22;;;;;;;13.40;12.10;;;21.50;99.90;;;;;;5027975;28;20419;-71
2021/07/26 06:37:50;;;;;;;14.83;12.70;;;21.50;99.90;;;;;;5033524;28;20630;-71
2021/07/26 06:40:18;;;;;;;14.10;12.60;;;21.60;99.90;;;;;;5042901;28;20659;-71
2021/07/26 06:42:46;;;;;;;14.03;12.67;;;21.70;99.90;;;;;;5035756;28;20254;-71
2021/07/26 06:45:16;;;;;;;13.40;12.00;;;21.90;99.90;;;;;;5034343;28;21088;-72
2021/07/26 06:47:44;;;;;;;13.17;11.87;;;22.30;99.90;;;;;;5035799;28;20431;-72
2021/07/26 06:50:13;;;;;;;12.97;11.67;;;22.30;99.90;;;;;;5038436;28;20266;-71
2021/07/26 06:52:41;;;;;;;11.53;10.43;;;22.30;99.90;;;;;;5034442;28;20931;-71
2021/07/26 06:55:10;;;;;;;12.43;11.13;;;22.70;99.90;;;;;;5050893;28;20262;-71
2021/07/26 06:57:38;;;;;;;12.13;10.93;;;22.60;99.90;;;;;;5044292;28;20247;-71
2021/07/26 07:00:07;;;;;;;12.03;10.93;;;22.50;99.90;;;;;;5041005;28;20234;-72
2021/07/26 07:02:37;;;;;;;12.23;10.83;;;22.40;99.90;;;;;;5060874;28;20677;-72
2021/07/26 07:05:06;;;;;;;12.70;11.50;;;22.30;99.90;;;;;;5030740;28;20240;-72
2021/07/26 07:07:34;;;;;;;11.60;10.47;;;22.20;99.90;;;;;;5027575;28;20777;-71
2021/07/26 07:10:02;;;;;;;12.33;11.13;;;22.20;99.90;;;;;;5034090;28;20615;-71
2021/07/26 07:12:31;;;;;;;11.03;9.90;;;22.10;99.90;;;;;;5034046;28;20914;-72
2021/07/26 07:14:59;;;;;;;11.80;10.63;;;22.00;99.90;;;;;;5035049;28;20239;-71
2021/07/26 07:17:27;;;;;;;11.80;10.60;;;22.00;99.90;;;;;;5032652;28;20243;-72
2021/07/26 07:19:57;;;;;;;11.63;10.43;;;22.10;99.90;;;;;;5033496;28;20261;-72
2021/07/26 07:22:25;;;;;;;12.17;10.10;;;22.20;99.90;;;;;;5032875;28;20316;-72
2021/07/26 07:24:54;;;;;;;11.37;10.27;;;22.30;99.90;;;;;;5029811;28;20246;-72
2021/07/26 07:27:22;;;;;;;10.67;9.67;;;22.40;99.90;;;;;;5032531;28;20999;-72
2021/07/26 07:30:10;;;;;;;10.90;9.83;;;22.50;99.90;;;;;;5027785;28;20731;-72
2021/07/26 07:32:38;;;;;;;9.57;8.73;;;22.60;99.90;;;;;;5002328;28;20244;-72
2021/07/26 07:35:09;;;;;;;10.07;8.97;;;22.90;99.90;;;;;;4999759;28;20272;-72
2021/07/26 07:37:38;;;;;;;9.77;8.77;;;23.40;99.90;;;;;;5001486;28;20240;-72
2021/07/26 07:40:08;;;;;;;8.80;8.00;;;23.80;99.90;;;;;;5002031;28;20252;-72
2021/07/26 07:42:36;;;;;;;8.50;7.33;;;24.10;99.90;;;;;;5012366;28;20233;-72
2021/07/26 07:45:06;;;;;;;8.73;7.93;;;24.60;99.90;;;;;;5028700;28;20358;-73
2021/07/26 07:47:34;;;;;;;8.20;7.40;;;24.70;99.90;;;;;;5017599;28;20751;-72
2021/07/26 07:50:03;;;;;;;8.40;7.50;;;24.70;99.90;;;;;;5016545;28;20241;-72
2021/07/26 07:52:32;;;;;;;7.97;6.77;;;24.60;99.90;;;;;;5017346;28;20236;-73
2021/07/26 07:55:00;;;;;;;7.57;6.70;;;24.40;99.90;;;;;;5018271;28;20652;-72
2021/07/26 07:57:30;;;;;;;7.10;6.50;;;24.20;99.90;;;;;;5015843;28;20251;-73
2021/07/26 07:59:58;;;;;;;7.20;6.50;;;24.30;99.90;;;;;;5020212;28;20260;-72
2021/07/26 08:02:26;;;;;;;6.20;5.60;;;24.20;99.90;;;;;;5024280;28;20236;-73
2021/07/26 08:04:55;;;;;;;6.90;6.07;;;24.20;99.90;;;;;;5016688;28;20343;-73
2021/07/26 08:07:23;;;;;;;5.90;5.30;;;24.30;99.90;;;;;;5018649;28;20241;-73
2021/07/26 08:09:53;;;;;;;8.13;5.70;;;24.40;99.90;;;;;;5016838;28;20341;-73
2021/07/26 08:12:21;;;;;;;5.93;5.17;;;24.40;99.90;;;;;;5019478;28;20245;-73
2021/07/26 08:14:50;;;;;;;5.97;5.43;;;24.60;99.90;;;;;;5019393;28;20247;-73
2021/07/26 08:17:18;;;;;;;6.23;4.53;;;25.00;99.90;;;;;;5016042;28;20233;-73
2021/07/26 08:19:46;;;;;;;5.53;5.03;;;25.20;99.90;;;;;;5018192;28;20332;-73
2021/07/26 08:22:20;;;;;;;6.24;4.94;;;25.50;99.90;;;;;;4766641;28;10000786;-73
2021/07/26 08:24:48;;;;;;;5.83;4.80;;;25.40;99.90;;;;;;1375590;28;10002078;-73
2021/07/26 08:27:18;;;;;;;6.50;4.90;;;25.30;99.90;;;;;;5007737;28;20724;-74
2021/07/26 08:29:46;;;;;;;6.40;5.03;;;25.20;99.90;;;;;;5011111;28;20802;-73
2021/07/26 08:32:14;;;;;;;5.27;4.77;;;25.20;99.90;;;;;;5012001;28;20246;-74
2021/07/26 08:34:42;;;;;;;5.73;4.73;;;25.10;99.90;;;;;;5013704;28;20714;-73
2021/07/26 08:37:10;;;;;;;5.87;4.73;;;25.10;99.90;;;;;;5009641;28;20245;-74
2021/07/26 08:39:39;;;;;;;6.10;4.53;;;25.30;99.90;;;;;;5033264;28;20298;-74
2021/07/26 08:42:07;;;;;;;5.03;4.50;;;25.50;99.90;;;;;;5032437;28;20580;-73
2021/07/26 08:44:37;;;;;;;6.23;4.30;;;25.60;99.90;;;;;;5032502;28;20248;-73
2021/07/26 08:47:06;;;;;;;6.90;5.00;;;25.70;99.90;;;;;;5030540;28;20515;-74
2021/07/26 08:49:35;;;;;;;4.53;4.10;;;25.80;99.90;;;;;;5026276;28;20238;-74
2021/07/26 08:52:06;;;;;;;5.53;4.67;;;25.80;99.90;;;;;;5021913;28;20237;-73
2021/07/26 08:54:35;;;;;;;6.47;4.83;;;25.90;99.90;;;;;;5032814;28;20250;-74
2021/07/26 08:57:04;;;;;;;4.80;3.87;;;25.90;99.90;;;;;;5028878;28;20781;-74
2021/07/26 08:59:33;;;;;;;6.90;4.60;;;26.10;99.90;;;;;;5032645;28;20250;-74
2021/07/26 09:02:03;;;;;;;5.33;4.73;;;26.10;99.90;;;;;;5032637;28;20242;-74
2021/07/26 09:04:31;;;;;;;5.30;4.10;;;26.10;99.90;;;;;;5031934;28;20246;-74
2021/07/26 09:07:05;;;;;;;5.57;4.30;;;26.00;99.90;;;;;;5029451;28;20238;-73
2021/07/26 09:09:43;;;;;;;6.70;5.33;;;26.00;99.90;;;;;;5033949;28;20729;-74
2021/07/26 09:12:12;;;;;;;20.87;12.40;;;26.10;99.90;;;;;;5036400;28;20668;-74
2021/07/26 09:14:41;;;;;;;4.63;4.10;;;26.20;99.90;;;;;;5029914;28;20245;-74
2021/07/26 09:17:11;;;;;;;6.70;4.20;;;26.30;99.90;;;;;;5024592;28;20246;-75
2021/07/26 09:19:58;;;;;;;4.70;4.30;;;26.50;99.90;;;;;;5029955;28;20238;-75
2021/07/26 09:22:28;;;;;;;6.13;3.93;;;27.40;99.90;;;;;;5027492;28;20273;-75
2021/07/26 09:25:12;;;;;;;6.37;4.20;;;28.30;99.90;;;;;;5027375;28;20245;-75
2021/07/26 09:27:56;;;;;;;5.87;4.23;;;28.40;99.90;;;;;;5026234;28;21044;-75
2021/07/26 09:30:25;;;;;;;7.23;3.97;;;28.80;99.90;;;;;;5028587;28;20358;-74
2021/07/26 09:32:54;;;;;;;5.97;3.97;;;29.00;99.90;;;;;;5032788;28;20233;-75
2021/07/26 09:35:24;;;;;;;5.00;3.97;;;29.30;99.90;;;;;;5041065;28;20731;-76
2021/07/26 09:38:00;;;;;;;4.57;4.00;;;29.90;99.90;;;;;;5044409;28;20266;-77
2021/07/26 09:40:33;;;;;;;6.23;4.33;;;29.90;99.90;;;;;;5043966;28;20242;-73
2021/07/26 09:43:17;;;;;;;4.80;4.40;;;29.50;99.90;;;;;;5042012;28;20242;-74
2021/07/26 09:45:45;;;;;;;4.30;3.90;;;29.10;99.90;;;;;;5042856;28;20251;-73
2021/07/26 09:48:16;;;;;;;4.37;3.90;;;29.10;99.90;;;;;;5046554;28;20703;-74
2021/07/26 09:50:46;;;;;;;6.03;4.30;;;29.00;99.90;;;;;;5046765;28;20273;-74
2021/07/26 09:53:15;;;;;;;5.30;4.20;;;29.00;99.90;;;;;;5046432;28;20653;-73
2021/07/26 09:55:45;;;;;;;5.97;3.70;;;28.60;99.90;;;;;;5044675;28;20261;-74
2021/07/26 09:58:15;;;;;;;4.13;3.73;;;28.60;99.90;;;;;;5045342;28;20309;-73
2021/07/26 10:00:45;;;;;;;3.63;3.33;;;28.80;99.90;;;;;;5045886;28;20235;-74
2021/07/26 10:03:16;;;;;;;4.50;4.10;;;29.10;99.90;;;;;;5046970;28;20235;-74
2021/07/26 10:05:45;;;;;;;3.60;3.30;;;29.40;99.90;;;;;;5046283;28;20240;-74
2021/07/26 10:08:13;;;;;;;3.60;3.27;;;29.50;99.90;;;;;;5046812;28;20255;-74
2021/07/26 10:10:42;;;;;;;4.00;3.37;;;29.30;99.90;;;;;;5046600;28;20281;-74
2021/07/26 10:13:10;;;;;;;3.70;3.27;;;29.20;99.90;;;;;;5048663;28;20240;-74
2021/07/26 10:15:38;;;;;;;3.90;3.27;;;29.10;99.90;;;;;;5050403;28;20262;-74
2021/07/26 10:18:07;;;;;;;4.17;3.50;;;29.20;99.90;;;;;;5045406;28;20315;-74
2021/07/26 10:20:40;;;;;;;3.67;3.20;;;29.20;99.90;;;;;;5029812;28;20248;-74
2021/07/26 10:23:12;;;;;;;3.73;3.10;;;29.10;99.90;;;;;;5035949;28;20304;-74
2021/07/26 10:25:45;;;;;;;4.77;3.70;;;28.90;99.90;;;;;;5044441;28;20765;-74
2021/07/26 10:28:21;;;;;;;3.87;3.30;;;28.70;99.90;;;;;;5048488;28;20243;-73
2021/07/26 10:30:49;;;;;;;3.37;3.07;;;28.40;99.90;;;;;;5049675;28;20354;-74
2021/07/26 10:33:19;;;;;;;3.30;3.00;;;28.10;99.90;;;;;;5049920;28;20240;-74
2021/07/26 10:35:52;;;;;;;4.67;3.03;;;27.80;99.90;;;;;;5049488;28;20239;-73
2021/07/26 10:38:54;;;;;;;3.73;2.90;;;28.00;99.90;;;;;;5050077;28;20227;-74
2021/07/26 10:42:00;;;;;;;4.47;2.97;;;28.40;99.90;;;;;;5044495;28;20243;-74
2021/07/26 10:44:44;;;;;;;4.37;3.17;;;28.80;99.90;;;;;;5049748;28;20244;-74
2021/07/26 10:47:21;;;;;;;3.77;2.90;;;29.00;99.90;;;;;;5049492;28;20260;-74
2021/07/26 10:50:12;;;;;;;4.23;3.20;;;29.00;99.90;;;;;;5049831;28;20323;-73
2021/07/26 10:52:46;;;;;;;4.03;3.30;;;29.20;99.90;;;;;;5029537;28;20244;-74
2021/07/26 10:55:50;;;;;;;4.47;3.30;;;29.10;99.90;;;;;;5033394;28;20262;-73
2021/07/26 10:58:50;;;;;;;3.47;3.03;;;29.50;99.90;;;;;;5066312;28;20249;-74
2021/07/26 11:02:04;;;;;;;4.30;3.10;;;30.40;99.90;;;;;;5059173;28;20323;-75
2021/07/26 11:04:37;;;;;;;5.37;3.40;;;31.50;99.90;;;;;;5069676;28;20314;-75
2021/07/26 11:07:07;;;;;;;4.37;3.70;;;31.80;99.90;;;;;;5069593;28;20252;-75
2021/07/26 11:09:41;;;;;;;3.53;3.20;;;31.70;99.90;;;;;;5056590;28;20266;-75
2021/07/26 11:12:09;;;;;;;4.20;3.60;;;31.40;99.90;;;;;;5061590;28;20732;-76
2021/07/26 11:14:37;;;;;;;3.50;3.20;;;31.60;99.90;;;;;;5049251;28;20235;-75
2021/07/26 11:17:08;;;;;;;4.30;3.37;;;31.70;99.90;;;;;;5049290;28;20288;-76
2021/07/26 11:19:54;;;;;;;3.60;3.20;;;31.40;99.90;;;;;;5049618;28;20585;-75
2021/07/26 11:23:00;;;;;;;7.17;3.63;;;31.80;99.90;;;;;;5048845;28;20250;-76
2021/07/26 11:25:34;;;;;;;5.10;3.40;;;32.10;99.90;;;;;;5051847;28;20251;-76
2021/07/26 11:28:03;;;;;;;3.97;3.40;;;32.10;99.90;;;;;;5069418;28;20587;-76
2021/07/26 11:30:34;;;;;;;4.63;3.40;;;32.20;99.90;;;;;;5064348;28;20249;-75
2021/07/26 11:33:02;;;;;;;5.07;3.20;;;32.70;99.90;;;;;;5048453;28;20255;-76
2021/07/26 11:35:32;;;;;;;5.00;3.53;;;33.00;99.90;;;;;;5047561;28;20224;-74
2021/07/26 11:38:06;;;;;;;4.73;3.40;;;32.50;99.90;;;;;;5040892;28;20232;-74
2021/07/26 11:40:36;;;;;;;3.90;3.03;;;32.40;99.90;;;;;;5012404;28;20296;-75
2021/07/26 11:43:04;;;;;;;4.70;2.97;;;32.60;99.90;;;;;;5011432;28;20270;-75
2021/07/26 11:45:32;;;;;;;5.67;3.20;;;33.10;99.90;;;;;;5013418;28;20242;-73
2021/07/26 11:48:06;;;;;;;3.13;2.83;;;33.20;99.90;;;;;;5012625;28;20250;-75
2021/07/26 11:50:39;;;;;;;3.57;2.97;;;33.20;99.90;;;;;;5013347;28;20238;-74
2021/07/26 11:53:07;;;;;;;4.00;3.50;;;33.00;99.90;;;;;;5009544;28;20283;-75
2021/07/26 11:55:37;;;;;;;3.50;3.17;;;33.20;99.90;;;;;;5013964;28;20728;-76
2021/07/26 11:58:09;;;;;;;3.63;2.93;;;33.30;99.90;;;;;;5013969;28;20239;-75
2021/07/26 12:00:40;;;;;;;3.23;2.93;;;33.50;99.90;;;;;;5013582;28;20247;-77
2021/07/26 12:03:10;;;;;;;5.80;3.57;;;33.60;99.90;;;;;;5027773;28;20701;-76
2021/07/26 12:05:38;;;;;;;4.03;2.97;;;33.30;99.90;;;;;;5030203;28;20381;-78
2021/07/26 12:08:13;;;;;;;4.13;3.33;;;33.20;99.90;;;;;;5030847;28;20761;-75
2021/07/26 12:10:43;;;;;;;5.97;3.43;;;33.00;99.90;;;;;;5030643;28;20288;-75
2021/07/26 12:13:14;;;;;;;4.23;3.30;;;32.40;99.90;;;;;;5031834;28;20235;-78
2021/07/26 12:15:43;;;;;;;4.20;3.17;;;32.30;99.90;;;;;;5040065;28;20235;-80
2021/07/26 12:18:33;;;;;;;3.67;3.30;;;31.90;99.90;;;;;;5040152;28;20706;-77
2021/07/26 12:21:01;;;;;;;4.53;3.47;;;31.60;99.90;;;;;;5036151;28;20266;-77
2021/07/26 12:23:31;;;;;;;6.20;3.20;;;31.60;99.90;;;;;;5032670;28;20243;-79
2021/07/26 12:26:08;;;;;;;3.70;3.33;;;31.70;99.90;;;;;;5033675;28;20231;-76
2021/07/26 12:28:42;;;;;;;3.50;3.20;;;32.00;99.90;;;;;;5037734;28;20617;-77
2021/07/26 12:31:26;;;;;;;3.47;3.17;;;32.10;99.90;;;;;;5014224;28;20240;-78
2021/07/26 12:34:13;;;;;;;5.23;3.40;;;31.70;99.90;;;;;;5032982;28;20290;-75
2021/07/26 12:36:42;;;;;;;3.90;3.10;;;31.30;99.90;;;;;;5037508;28;20239;-76
2021/07/26 12:39:11;;;;;;;3.70;3.23;;;31.20;99.90;;;;;;5043345;28;20705;-79
2021/07/26 12:41:44;;;;;;;4.90;3.30;;;31.30;99.90;;;;;;5039193;28;20238;-76
2021/07/26 12:44:15;;;;;;;4.17;3.40;;;31.40;99.90;;;;;;5045490;28;20268;-75
2021/07/26 12:46:46;;;;;;;4.10;3.00;;;31.50;99.90;;;;;;5043780;28;20234;-78
2021/07/26 12:49:15;;;;;;;3.47;3.03;;;31.30;99.90;;;;;;5046414;28;20318;-80
2021/07/26 12:51:44;;;;;;;3.37;3.07;;;31.40;99.90;;;;;;5046648;28;20232;-77
2021/07/26 12:54:12;;;;;;;3.33;3.03;;;31.50;99.90;;;;;;5047424;28;20281;-78
2021/07/26 12:56:41;;;;;;;3.10;2.80;;;31.80;99.90;;;;;;5052778;28;20300;-79